createdAt,value
2022-10-05T05:14:02.455Z,7.70
2022-10-05T05:16:37.069Z,7.30
2022-10-05T05:19:17.989Z,8.00
2022-10-05T05:22:03.885Z,8.45
2022-10-05T05:24:55.472Z,8.30
2022-10-05T05:27:25.063Z,7.30
2022-10-05T05:30:03.827Z,6.88
2022-10-05T05:32:43.691Z,7.07
2022-10-05T05:35:37.469Z,8.40
2022-10-05T05:38:13.374Z,9.93
2022-10-05T05:40:58.654Z,9.55
2022-10-05T05:43:53.483Z,11.32
2022-10-05T05:47:03.122Z,10.25
2022-10-05T05:49:49.317Z,9.75
2022-10-05T05:52:20.198Z,10.27
2022-10-05T05:55:06.881Z,10.00
2022-10-05T05:57:46.254Z,10.15
2022-10-05T06:00:23.898Z,11.63
2022-10-05T06:02:53.714Z,11.65
2022-10-05T06:05:45.284Z,10.75
2022-10-05T06:08:39.970Z,11.68
2022-10-05T06:11:14.465Z,10.57
2022-10-05T06:13:42.866Z,9.32
2022-10-05T06:16:34.402Z,9.02
2022-10-05T06:19:18.584Z,9.18
2022-10-05T06:21:53.712Z,8.70
2022-10-05T06:24:34.761Z,9.77
2022-10-05T06:27:01.484Z,9.05
2022-10-05T06:29:56.645Z,8.25
2022-10-05T06:32:51.784Z,8.43
2022-10-05T06:35:46.151Z,8.57
2022-10-05T06:38:24.553Z,8.35
2022-10-05T06:41:21.676Z,8.93
2022-10-05T06:44:21.966Z,7.93
2022-10-05T06:47:11.836Z,8.63
2022-10-05T06:50:12.552Z,9.05
2022-10-05T06:52:55.489Z,9.05
2022-10-05T06:55:47.149Z,9.57
2022-10-05T06:58:30.964Z,9.57
2022-10-05T07:01:10.965Z,10.35
2022-10-05T07:03:50.761Z,10.40
2022-10-05T07:06:35.593Z,11.02
2022-10-05T07:09:26.817Z,10.98
2022-10-05T07:12:00.821Z,10.88
2022-10-05T07:14:58.893Z,11.77
2022-10-05T07:17:31.852Z,11.38
2022-10-05T07:20:29.977Z,12.27
2022-10-05T07:23:25.118Z,10.40
2022-10-05T07:26:14.789Z,9.57
2022-10-05T07:29:06.977Z,10.88
2022-10-05T07:31:45.582Z,10.93
2022-10-05T07:34:37.979Z,10.60
2022-10-05T07:37:34.523Z,11.45
2022-10-05T07:40:39.373Z,11.95
2022-10-05T07:43:13.860Z,13.05
2022-10-05T07:45:49.173Z,12.27
2022-10-05T07:48:20.690Z,13.05
2022-10-05T07:51:00.144Z,13.13
2022-10-05T07:53:32.647Z,11.90
2022-10-05T07:56:21.069Z,12.77
2022-10-05T07:58:55.957Z,11.82
2022-10-05T08:01:29.708Z,11.52
2022-10-05T08:04:04.393Z,9.55
2022-10-05T08:06:57.932Z,10.63
2022-10-05T08:12:35.780Z,10.10
2022-10-05T08:15:29.319Z,9.57
2022-10-05T08:20:52.370Z,9.60
2022-10-05T08:23:40.780Z,10.40
2022-10-05T08:26:13.461Z,8.95
2022-10-05T08:28:50.981Z,9.10
2022-10-05T08:31:23.235Z,9.25
2022-10-05T08:34:21.048Z,8.45
2022-10-05T08:37:05.880Z,8.48
2022-10-05T08:39:48.315Z,8.85
2022-10-05T08:43:08.533Z,7.83
2022-10-05T08:46:01.401Z,8.38
2022-10-05T08:49:09.932Z,8.98
2022-10-05T08:52:13.408Z,8.10
2022-10-05T08:55:24.767Z,7.60
2022-10-05T08:58:15.543Z,7.00
2022-10-05T09:00:57.921Z,6.05
2022-10-05T09:03:58.274Z,5.57
2022-10-05T09:06:48.041Z,5.32
2022-10-05T09:09:21.897Z,4.50
2022-10-05T09:12:09.698Z,5.07
2022-10-05T09:15:20.805Z,5.10
2022-10-05T09:18:14.285Z,4.97
2022-10-05T09:21:02.261Z,5.28
2022-10-05T09:23:39.737Z,5.80
2022-10-05T09:26:29.790Z,5.32
2022-10-05T09:29:14.322Z,5.80
2022-10-05T09:32:02.397Z,6.05
2022-10-05T09:34:47.759Z,6.55
2022-10-05T09:37:40.806Z,6.95
2022-10-05T09:40:13.634Z,6.10
2022-10-05T09:43:01.709Z,6.40
2022-10-05T09:46:07.207Z,5.82
2022-10-05T09:49:06.954Z,5.47
2022-10-05T09:52:16.425Z,5.65
2022-10-05T09:55:02.949Z,4.53
2022-10-05T09:58:24.798Z,2.88
2022-10-05T10:01:29.172Z,2.00
2022-10-05T10:04:07.059Z,2.40
2022-10-05T10:06:52.219Z,1.90
2022-10-05T10:09:52.535Z,1.98
2022-10-05T10:12:46.840Z,2.00
2022-10-05T10:15:28.553Z,2.00
2022-10-05T10:18:23.754Z,2.05
2022-10-05T10:21:16.523Z,1.90
2022-10-05T10:23:49.215Z,2.10
2022-10-05T10:26:47.693Z,1.92
2022-10-05T10:29:33.940Z,2.20
2022-10-05T10:32:28.645Z,2.08
2022-10-05T10:35:19.419Z,2.15
2022-10-05T10:38:17.314Z,2.00
2022-10-05T10:40:55.245Z,1.90
2022-10-05T10:43:51.845Z,2.00
2022-10-05T10:46:45.342Z,2.00
2022-10-05T10:49:31.207Z,1.98
2022-10-05T10:52:22.743Z,2.13
2022-10-05T10:55:19.845Z,1.80
2022-10-05T10:58:21.814Z,1.90
2022-10-05T11:01:25.942Z,1.73
2022-10-05T11:04:04.561Z,2.00
2022-10-05T11:07:00.096Z,2.00
2022-10-05T11:09:55.544Z,2.17
2022-10-05T11:12:59.850Z,1.80
2022-10-05T11:15:44.725Z,1.83
2022-10-05T11:18:48.350Z,1.80
2022-10-05T11:24:13.009Z,1.67
2022-10-05T11:26:45.496Z,2.20
2022-10-05T11:29:21.131Z,2.00
2022-10-05T11:32:15.276Z,1.70
2022-10-05T11:35:03.332Z,1.70
2022-10-05T11:37:57.756Z,1.83
2022-10-05T11:41:04.116Z,1.88
2022-10-05T11:43:55.760Z,1.90
2022-10-05T11:46:37.961Z,1.80
2022-10-05T11:49:34.027Z,1.87
2022-10-05T11:52:40.450Z,1.60
2022-10-05T11:55:26.812Z,2.20
2022-10-05T11:58:07.381Z,2.10
2022-10-05T12:00:50.149Z,1.88
2022-10-05T12:03:28.959Z,1.77
2022-10-05T12:06:30.698Z,2.00
2022-10-05T12:09:12.579Z,1.90
2022-10-05T12:11:57.848Z,1.30
2022-10-05T12:14:33.559Z,2.00
2022-10-05T12:17:25.325Z,1.70
2022-10-05T12:19:59.413Z,1.30
2022-10-05T12:22:39.933Z,1.80
2022-10-05T12:25:29.161Z,1.58
2022-10-05T12:28:04.938Z,1.63
2022-10-05T12:31:02.696Z,1.38
2022-10-05T12:33:49.939Z,1.55
2022-10-05T12:36:35.988Z,1.52
2022-10-05T12:39:34.216Z,1.70
2022-10-05T12:42:16.980Z,1.88
2022-10-05T12:45:04.933Z,1.73
2022-10-05T12:48:02.160Z,1.63
2022-10-05T12:50:36.726Z,1.50
2022-10-05T12:53:24.589Z,1.60
2022-10-05T12:56:17.433Z,1.48
2022-10-05T12:59:04.649Z,1.42
2022-10-05T13:01:31.317Z,1.60
2022-10-05T13:04:07.216Z,1.80
2022-10-05T13:06:41.015Z,1.73
2022-10-05T13:09:15.140Z,1.80
2022-10-05T13:11:51.657Z,1.80
2022-10-05T13:14:23.731Z,1.60
2022-10-05T13:17:04.153Z,2.13
2022-10-05T13:19:40.146Z,1.90
2022-10-05T13:22:27.270Z,2.00
2022-10-05T13:25:09.064Z,1.70
2022-10-05T13:27:41.240Z,1.85
2022-10-05T13:30:19.378Z,1.63
2022-10-05T13:33:05.672Z,1.63
2022-10-05T13:35:59.009Z,1.80
2022-10-05T13:38:54.746Z,1.50
2022-10-05T13:41:57.018Z,1.70
2022-10-05T13:44:49.119Z,1.80
2022-10-05T13:47:52.194Z,1.50
2022-10-05T13:50:32.772Z,1.50
2022-10-05T13:53:35.387Z,1.42
2022-10-05T13:56:31.073Z,1.55
2022-10-05T13:59:06.421Z,1.30
2022-10-05T14:01:44.276Z,1.33
2022-10-05T14:04:21.400Z,1.55
2022-10-05T14:06:49.171Z,1.50
2022-10-05T14:09:25.472Z,1.55
2022-10-05T14:12:02.490Z,1.27
2022-10-05T14:14:42.685Z,1.45
2022-10-05T14:17:29.168Z,1.63
2022-10-05T14:20:01.099Z,1.25
2022-10-05T14:22:29.209Z,1.10
2022-10-05T14:25:19.847Z,1.30
2022-10-05T14:28:03.642Z,1.50
2022-10-05T14:30:32.771Z,1.20
2022-10-05T14:33:05.453Z,1.48
2022-10-05T14:38:57.776Z,1.15
2022-10-05T14:41:28.285Z,1.40
2022-10-05T14:44:04.929Z,1.40
2022-10-05T14:46:32.936Z,1.42
2022-10-05T14:49:24.239Z,1.63
2022-10-05T14:51:52.109Z,1.60
2022-10-05T14:54:45.341Z,1.63
2022-10-05T14:57:37.497Z,1.50
2022-10-05T15:00:12.957Z,1.38
2022-10-05T15:02:54.385Z,1.65
2022-10-05T15:05:42.669Z,2.25
2022-10-05T15:08:34.017Z,1.52
2022-10-05T15:11:07.738Z,1.65
2022-10-05T15:13:40.063Z,1.65
2022-10-05T15:16:31.033Z,1.65
2022-10-05T15:19:20.898Z,1.55
2022-10-05T15:22:11.602Z,1.50
2022-10-05T15:25:11.695Z,1.80
2022-10-05T15:28:06.613Z,1.70
2022-10-05T15:30:40.050Z,1.90
2022-10-05T15:33:25.369Z,1.75
2022-10-05T15:36:11.679Z,2.00
2022-10-05T15:39:03.279Z,1.60
2022-10-05T15:41:55.934Z,2.25
2022-10-05T15:45:07.718Z,1.95
2022-10-05T15:47:46.574Z,1.80
2022-10-05T15:50:18.348Z,1.73
2022-10-05T15:53:23.297Z,2.15
2022-10-05T15:56:03.027Z,2.30
2022-10-05T15:58:44.536Z,2.00
2022-10-05T16:01:17.839Z,1.73
2022-10-05T16:03:56.295Z,2.10
2022-10-05T16:07:04.212Z,1.70
2022-10-05T16:09:38.499Z,1.95
2022-10-05T16:12:14.448Z,2.15
2022-10-05T16:15:08.713Z,2.47
2022-10-05T16:17:53.887Z,2.22
2022-10-05T16:20:23.558Z,2.15
2022-10-05T16:23:27.387Z,2.15
2022-10-05T16:26:03.844Z,2.33
2022-10-05T16:28:33.602Z,2.15
2022-10-05T16:31:12.920Z,2.10
2022-10-05T16:34:02.591Z,2.20
2022-10-05T16:36:41.014Z,2.33
2022-10-05T16:39:25.572Z,2.45
2022-10-05T16:42:24.430Z,2.15
2022-10-05T16:45:08.368Z,2.40
2022-10-05T16:48:06.210Z,2.08
2022-10-05T16:50:50.111Z,2.15
2022-10-05T16:53:27.698Z,2.30
2022-10-05T16:56:01.962Z,2.22
2022-10-05T16:58:36.871Z,2.03
2022-10-05T17:01:37.227Z,2.00
2022-10-05T17:04:15.092Z,2.10
2022-10-05T17:06:51.347Z,2.17
2022-10-05T17:09:40.653Z,2.50
2022-10-05T17:12:23.450Z,2.33
2022-10-05T17:15:29.647Z,2.55
2022-10-05T17:18:23.837Z,2.40
2022-10-05T17:21:11.725Z,2.53
2022-10-05T17:23:53.646Z,3.15
2022-10-05T17:26:23.469Z,2.42
2022-10-05T17:29:28.004Z,2.25
2022-10-05T17:32:06.535Z,2.40
2022-10-05T17:34:36.229Z,2.60
2022-10-05T17:37:27.338Z,2.70
2022-10-05T17:39:56.414Z,2.47
2022-10-05T17:42:26.289Z,2.72
2022-10-05T17:45:19.526Z,2.58
2022-10-05T17:48:04.503Z,3.05
2022-10-05T17:51:06.876Z,2.95
2022-10-05T17:54:04.161Z,2.72
2022-10-05T17:56:47.188Z,2.45
2022-10-05T17:59:38.892Z,2.55
2022-10-05T18:02:22.026Z,2.75
2022-10-05T18:05:16.238Z,2.40
2022-10-05T18:07:50.176Z,2.80
2022-10-05T18:10:29.126Z,3.20
2022-10-05T18:12:59.020Z,3.20
2022-10-05T18:15:25.752Z,2.70
2022-10-05T18:17:57.451Z,2.88
2022-10-05T18:20:24.209Z,2.63
2022-10-05T18:22:53.456Z,2.78
2022-10-05T18:25:41.715Z,3.05
2022-10-05T18:28:26.491Z,3.25
2022-10-05T18:31:31.202Z,2.80
2022-10-05T18:34:30.895Z,4.10
2022-10-05T18:37:31.216Z,4.18
2022-10-05T18:40:37.436Z,6.38
2022-10-05T18:43:30.641Z,3.60
2022-10-05T18:46:24.313Z,3.17
2022-10-05T18:48:54.024Z,3.35
2022-10-05T18:51:54.602Z,3.58
2022-10-05T18:54:36.481Z,3.08
2022-10-05T18:57:41.760Z,2.80
2022-10-05T19:00:23.008Z,2.45
2022-10-05T19:02:52.543Z,3.13
2022-10-05T19:05:48.372Z,2.67
2022-10-05T19:08:33.710Z,2.92
2022-10-05T19:11:16.811Z,2.40
2022-10-05T19:16:41.804Z,2.53
2022-10-05T19:19:34.255Z,2.42
2022-10-05T19:22:13.901Z,2.65
2022-10-05T19:24:56.700Z,2.35
2022-10-05T19:27:38.871Z,2.38
2022-10-05T19:30:19.672Z,2.42
2022-10-05T19:33:05.049Z,2.03
2022-10-05T19:35:47.784Z,2.60
2022-10-05T19:38:33.392Z,2.22
2022-10-05T19:41:20.059Z,2.42
2022-10-05T19:44:16.577Z,2.30
2022-10-05T19:46:56.224Z,2.88
2022-10-05T19:50:03.456Z,2.10
2022-10-05T19:52:49.690Z,2.22
2022-10-05T19:55:26.335Z,2.33
2022-10-05T19:57:55.252Z,2.25
2022-10-05T20:00:26.594Z,2.85
2022-10-05T20:03:10.021Z,2.47
2022-10-05T20:05:36.857Z,2.85
2022-10-05T20:08:06.386Z,2.13
2022-10-05T20:10:33.717Z,2.70
2022-10-05T20:13:02.482Z,2.10
2022-10-05T20:15:49.177Z,2.55
2022-10-05T20:19:02.601Z,3.10
2022-10-05T20:21:37.148Z,2.28
2022-10-05T20:24:12.813Z,2.30
2022-10-05T20:27:03.887Z,2.28
2022-10-05T20:29:41.133Z,2.25
2022-10-05T20:32:17.697Z,1.90
2022-10-05T20:34:46.541Z,1.98
2022-10-05T20:37:15.685Z,1.95
2022-10-05T20:39:43.044Z,2.33
2022-10-05T20:42:10.834Z,2.10
2022-10-05T20:44:38.207Z,1.88
2022-10-05T20:47:08.743Z,1.92
2022-10-05T20:49:36.789Z,1.83
2022-10-05T20:52:09.723Z,1.90
2022-10-05T20:57:06.202Z,2.03
2022-10-05T20:59:34.055Z,2.20
2022-10-05T21:02:01.606Z,1.90
2022-10-05T21:04:40.273Z,2.00
2022-10-05T21:07:07.482Z,2.00
2022-10-05T21:09:34.244Z,1.70
2022-10-05T21:12:00.992Z,1.92
2022-10-05T21:14:30.574Z,2.55
2022-10-05T21:16:57.374Z,1.85
2022-10-05T21:19:24.107Z,2.30
2022-10-05T21:21:51.046Z,2.00
2022-10-05T21:24:17.826Z,1.75
2022-10-05T21:26:45.328Z,1.83
2022-10-05T21:29:13.327Z,2.10
2022-10-05T21:31:40.692Z,2.15
2022-10-05T21:34:08.179Z,2.50
2022-10-05T21:36:35.332Z,2.10
2022-10-05T21:39:02.182Z,2.30
2022-10-05T21:41:28.978Z,1.75
2022-10-05T21:43:55.780Z,2.13
2022-10-05T21:46:26.580Z,1.70
2022-10-05T21:48:54.477Z,2.17
2022-10-05T21:51:25.066Z,2.28
2022-10-05T21:53:56.660Z,1.88
2022-10-05T21:56:28.090Z,1.90
2022-10-05T21:58:54.974Z,2.28
2022-10-05T22:01:23.097Z,2.08
2022-10-05T22:03:50.154Z,1.90
2022-10-05T22:06:16.929Z,2.17
2022-10-05T22:08:43.690Z,2.33
2022-10-05T22:11:13.371Z,2.42
2022-10-05T22:13:48.833Z,1.90
2022-10-05T22:16:17.193Z,2.50
2022-10-05T22:18:44.781Z,2.47
2022-10-05T22:21:13.246Z,2.50
2022-10-05T22:23:41.169Z,2.30
2022-10-05T22:26:10.884Z,2.25
2022-10-05T22:28:38.983Z,2.05
2022-10-05T22:31:07.787Z,2.22
2022-10-05T22:33:35.315Z,2.10
2022-10-05T22:36:02.162Z,2.60
2022-10-05T22:38:30.538Z,2.63
2022-10-05T22:40:58.084Z,2.40
2022-10-05T22:43:28.279Z,2.30
2022-10-05T22:45:56.024Z,2.40
2022-10-05T22:48:22.910Z,2.03
2022-10-05T22:50:49.737Z,2.10
2022-10-05T22:53:16.670Z,1.20
2022-10-05T22:55:43.431Z,1.27
2022-10-05T22:58:10.266Z,1.17
2022-10-05T23:00:57.150Z,1.25
2022-10-05T23:03:23.849Z,0.77
2022-10-05T23:05:57.060Z,1.27
2022-10-05T23:08:24.290Z,0.77
2022-10-05T23:10:51.906Z,0.70
2022-10-05T23:13:18.637Z,0.65
2022-10-05T23:15:45.409Z,0.70
2022-10-05T23:18:12.448Z,1.38
2022-10-05T23:20:40.222Z,1.27
2022-10-05T23:23:06.956Z,1.20
2022-10-05T23:25:33.882Z,0.80
2022-10-05T23:28:02.493Z,0.90
2022-10-05T23:30:29.583Z,1.15
2022-10-05T23:32:56.456Z,0.90
2022-10-05T23:35:23.281Z,0.70
2022-10-05T23:37:50.032Z,0.90
2022-10-05T23:40:16.979Z,0.73
2022-10-05T23:42:43.782Z,0.85
2022-10-05T23:45:11.994Z,0.75
2022-10-05T23:47:39.721Z,0.70
2022-10-05T23:50:08.187Z,0.90
2022-10-05T23:52:35.599Z,1.35
2022-10-05T23:55:03.594Z,1.20
2022-10-05T23:57:30.969Z,1.60
2022-10-05T23:59:57.766Z,1.60
